Latest Weather Observations for Coconut Island

IDQ60801

Issued at 11:05 pm EST Thursday 24 July 2014 (issued every 30 minutes, with the page automatically refreshed every 10 minutes)

About weather observations | Map of weather stations | Latest weather observations for QLD | Other Formats
Station Details ID: 027054 Name: COCONUT ISLAND Lat: -10.05 Lon: 143.07 Height: 3.5 m
Data from the previous 72 hours. | See also: Recent months at Coconut Island
Date/Time
EST
Temp
°C
App
Temp
°C
Dew
Point
Rel
Hum
%
Delta-T
°C
Wind Press
QNH
hPa
Press
MSL
hPa
Rain
since 9 am
mm
Dir
 
Spd
km/h
Gust
km/h
Spd
kts
Gust
kts
24/11:00pm 25.0 - - - - SE 11 22 6 12 1014.6 1014.6 0.2
24/10:30pm 25.1 - - - - SE 9 15 5 8 1014.7 - 0.2
24/10:00pm 25.1 - - - - SE 9 22 5 12 1014.7 1014.7 0.2
24/09:30pm 25.0 - - - - SE 9 20 5 11 1014.5 - 0.2
24/09:00pm 24.9 - - - - SE 11 20 6 11 1014.4 1014.4 0.2
24/08:30pm 25.0 - - - - SE 9 20 5 11 1014.2 - 0.2
24/08:00pm 25.1 - - - - SE 7 20 4 11 1013.9 1013.9 0.2
24/07:30pm 25.1 - - - - SE 6 19 3 10 1013.4 - 0.2
24/07:00pm 24.9 - - - - SE 6 17 3 9 1013.1 1013.1 0.2
24/06:30pm 25.0 - - - - SE 7 15 4 8 1012.8 - 0.2
24/06:00pm 25.3 - - - - SE 6 15 3 8 1012.7 1012.7 0.2
24/05:30pm 25.7 - - - - SE 7 15 4 8 1012.3 - 0.2
24/05:00pm 25.9 - - - - SSE 6 19 3 10 1012.2 1012.2 0.2
24/04:30pm 26.2 - - - - SE 7 17 4 9 1012.0 - 0.2
24/04:00pm 26.8 - - - - SSE 6 15 3 8 1012.0 1012.0 0.2
24/03:30pm 27.6 - - - - SSE 7 15 4 8 1011.8 - 0.2
24/03:00pm 28.3 - - - - SE 7 17 4 9 1011.9 1011.9 0.2
24/02:30pm 28.6 - - - - SE 7 17 4 9 1012.0 - 0.2
24/02:00pm 29.4 - - - - ESE 7 19 4 10 1012.4 1012.4 0.2
24/01:30pm 28.3 - - - - SE 6 15 3 8 1013.0 - 0.2
24/01:00pm 28.4 - - - - SE 6 17 3 9 1013.2 1013.2 0.2
24/12:30pm 28.7 - - - - SE 9 17 5 9 1013.5 - 0.2
24/12:00pm 28.6 - - - - SE 6 15 3 8 1013.7 1013.7 0.2
24/11:30am 27.0 - - - - SE 4 7 2 4 1014.1 - 0.2
24/11:00am 26.1 - - - - SSE 6 15 3 8 1014.4 1014.4 0.2
24/10:30am 25.1 - - - - SSE 4 9 2 5 1014.7 - 0.2
24/10:00am 23.7 - - - - ESE 13 26 7 14 1014.9 1014.9 0.2
24/09:30am 25.0 - - - - SE 6 11 3 6 1014.7 - 0.0
24/09:00am 24.4 - - - - SE 7 20 4 11 1014.5 1014.5 1.4
24/08:30am 23.4 - - - - ESE 11 22 6 12 1014.1 - 1.4
24/08:00am 22.3 - - - - E 17 26 9 14 1014.0 1014.0 1.4
24/07:30am 23.5 - - - - ESE 7 13 4 7 1013.2 - 0.2
24/07:00am 23.0 - - - - ESE 9 19 5 10 1013.0 1013.0 0.2
24/06:30am 23.5 - - - - ESE 11 24 6 13 1012.6 - 0.0
24/06:00am 23.4 - - - - SSE 6 11 3 6 1012.2 1012.2 0.0
24/05:30am 23.4 - - - - SE 6 11 3 6 1011.8 - 0.0
24/05:00am 23.6 - - - - SE 7 19 4 10 1011.8 1011.8 0.0
24/04:30am 23.6 - - - - SE 6 15 3 8 1011.6 - 0.0
24/04:00am 23.6 - - - - SE 7 17 4 9 1011.6 1011.6 0.0
24/03:30am 23.9 - - - - SE 7 13 4 7 1011.7 - 0.0
24/03:00am 24.1 - - - - SE 6 13 3 7 1011.9 1011.9 0.0
24/02:30am 24.2 - - - - SE 6 15 3 8 1012.2 - 0.0
24/02:00am 24.2 - - - - SE 7 19 4 10 1012.5 1012.5 0.0
24/01:30am 24.3 - - - - SE 6 13 3 7 1012.8 - 0.0
24/01:00am 24.2 - - - - SE 9 19 5 10 1013.0 1013.0 0.0
24/12:30am 24.6 - - - - SE 9 22 5 12 1013.0 - 0.0
24/12:00am 24.6 - - - - SE 11 22 6 12 1013.0 1013.0 0.0
 
Date/Time
EST
Temp
°C
App
Temp
°C
Dew
Point
Rel
Hum
%
Delta-T
°C
Wind Press
QNH
hPa
Press
MSL
hPa
Rain
since 9 am
mm
Dir
 
Spd
km/h
Gust
km/h
Spd
kts
Gust
kts
23/11:30pm 24.7 - - - - SE 11 24 6 13 1012.9 - 0.0
23/11:00pm 24.8 - - - - SE 7 24 4 13 1012.9 1012.9 0.0
23/10:30pm 24.8 - - - - SE 6 20 3 11 1012.9 - 0.0
23/10:00pm 24.8 - - - - SE 13 26 7 14 1013.0 1013.0 0.0
23/09:30pm 24.8 - - - - SE 9 26 5 14 1013.0 - 0.0
23/09:00pm 24.9 - - - - SE 6 13 3 7 1012.6 1012.6 0.0
23/08:30pm 24.8 - - - - SE 9 24 5 13 1012.1 - 0.0
23/08:00pm 24.9 - - - - SE 7 19 4 10 1011.7 1011.7 0.0
23/07:30pm 25.0 - - - - SE 7 19 4 10 1011.4 - 0.0
23/07:00pm 25.2 - - - - SE 7 19 4 10 1011.1 1011.1 0.0
23/06:30pm 25.1 - - - - SE 7 17 4 9 1010.9 - 0.0
23/06:00pm 25.6 - - - - SE 11 22 6 12 1010.6 1010.6 0.0
23/05:30pm 26.8 - - - - SE 11 22 6 12 1010.4 - 0.0
23/05:00pm 27.0 - - - - SE 9 22 5 12 1010.2 1010.2 0.0
23/04:30pm 28.4 - - - - ESE 11 20 6 11 1010.2 - 0.0
23/04:00pm 28.6 - - - - ESE 9 22 5 12 1010.1 1010.1 0.0
23/03:30pm 28.9 - - - - ESE 11 22 6 12 1010.2 - 0.0
23/03:00pm 29.6 - - - - ESE 11 22 6 12 1010.3 1010.3 0.0
23/02:30pm 29.6 - - - - SE 9 19 5 10 1010.6 - 0.0
23/02:00pm 30.3 - - - - ESE 11 22 6 12 1011.2 1011.2 0.0
23/01:30pm 29.4 - - - - ESE 13 24 7 13 1011.6 - 0.0
23/01:00pm 30.0 - - - - SE 9 19 5 10 1012.1 1012.1 0.0
23/12:30pm 29.9 - - - - ESE 11 22 6 12 1012.4 - 0.0
23/12:00pm 30.0 - - - - ESE 13 22 7 12 1012.8 1012.8 0.0
23/11:30am 29.9 - - - - ESE 13 22 7 12 1013.4 - 0.0
23/11:00am 29.3 - - - - ESE 13 20 7 11 1014.0 1014.0 0.0
23/10:30am 28.8 - - - - ESE 13 20 7 11 1014.5 - 0.0
23/10:00am 28.3 - - - - ESE 11 20 6 11 1014.7 1014.7 0.0
23/09:30am 28.0 - - - - ESE 11 19 6 10 1014.9 - 0.0
23/09:00am 27.2 - - - - ESE 11 19 6 10 1014.8 1014.8 0.0
23/08:30am 26.1 - - - - ESE 13 24 7 13 1014.7 - 0.0
23/08:00am 25.3 - - - - ESE 11 24 6 13 1014.4 1014.4 0.0
23/07:30am 24.3 - - - - ESE 9 22 5 12 1014.1 - 0.0
23/07:00am 23.7 - - - - SE 7 17 4 9 1013.9 1013.9 0.0
23/06:30am 23.4 - - - - SE 7 15 4 8 1013.6 - 0.0
23/06:00am 23.3 - - - - SSE 4 9 2 5 1013.4 1013.4 0.0
23/05:30am 23.3 - - - - SSE 4 6 2 3 1013.2 - 0.0
23/05:00am 22.9 - - - - SE 4 9 2 5 1013.2 1013.2 0.0
23/04:30am 23.0 - - - - SSE 4 15 2 8 1013.0 - 0.0
23/04:00am 23.2 - - - - SE 4 9 2 5 1013.0 1013.0 0.0
23/03:30am 23.3 - - - - SE 6 15 3 8 1013.1 - 0.0
23/03:00am 23.5 - - - - SE 7 17 4 9 1013.2 1013.2 0.0
23/02:30am 23.7 - - - - SE 9 19 5 10 1013.3 - 0.0
23/02:00am 23.9 - - - - SE 9 22 5 12 1013.5 1013.5 0.0
23/01:30am 24.0 - - - - SE 9 22 5 12 1013.6 - 0.0
23/01:00am 24.2 - - - - ESE 11 22 6 12 1014.1 1014.1 0.0
23/12:30am 24.3 - - - - ESE 13 26 7 14 1014.4 - 0.0
23/12:00am 24.4 - - - - ESE 15 26 8 14 1014.4 1014.4 0.0
 
Date/Time
EST
Temp
°C
App
Temp
°C
Dew
Point
Rel
Hum
%
Delta-T
°C
Wind Press
QNH
hPa
Press
MSL
hPa
Rain
since 9 am
mm
Dir
 
Spd
km/h
Gust
km/h
Spd
kts
Gust
kts
22/11:30pm 24.4 - - - - SE 13 24 7 13 1014.3 - 0.0
22/11:00pm 24.3 - - - - ESE 11 26 6 14 1014.5 1014.5 0.0
22/10:30pm 24.4 - - - - SE 11 22 6 12 1014.3 - 0.0
22/10:00pm 24.5 - - - - SE 7 17 4 9 1014.4 1014.4 0.0
22/09:30pm 24.6 - - - - SE 13 24 7 13 1014.6 - 0.0
22/09:00pm 24.6 - - - - SE 11 24 6 13 1014.3 1014.3 0.0
22/08:30pm 24.8 - - - - SE 7 22 4 12 1013.9 - 0.0
22/08:00pm 24.8 - - - - SE 9 20 5 11 1013.4 1013.4 0.0
22/07:30pm 25.0 - - - - SSE 7 15 4 8 1013.2 - 0.0
22/07:00pm 25.1 - - - - SE 7 17 4 9 1013.0 1013.0 0.0
22/06:30pm 25.3 - - - - SSE 6 13 3 7 1012.5 - 0.0
22/06:00pm 25.5 - - - - SSE 6 15 3 8 1012.3 1012.3 0.0
22/05:30pm 26.0 - - - - SSE 6 11 3 6 1012.4 - 0.0
22/05:00pm 26.5 - - - - SSE 6 15 3 8 1012.5 1012.5 0.0
22/04:30pm 27.2 - - - - SSE 6 15 3 8 1012.4 - 0.0
22/04:00pm 27.8 - - - - SSE 6 13 3 7 1012.5 1012.5 0.0
22/03:30pm 28.3 - - - - SSE 6 13 3 7 1012.6 - 0.0
22/03:00pm 28.9 - - - - SSE 6 13 3 7 1012.6 1012.6 0.0
22/02:30pm 29.1 - - - - SSE 6 15 3 8 1012.8 - 0.0
22/02:00pm 29.6 - - - - SSE 7 17 4 9 1013.0 1013.0 0.0
22/01:30pm 29.8 - - - - SE 6 19 3 10 1013.4 - 0.0
22/01:00pm 29.6 - - - - SE 6 15 3 8 1013.8 1013.8 0.0
22/12:30pm 29.7 - - - - SSE 7 13 4 7 1014.2 - 0.0
22/12:00pm 29.1 - - - - SSE 6 13 3 7 1014.5 1014.5 0.0
22/11:30am 29.1 - - - - SSE 7 13 4 7 1014.7 - 0.0
22/11:00am 28.6 - - - - SSE 7 13 4 7 1015.0 1015.0 0.0
22/10:30am 28.4 - - - - SSE 7 17 4 9 1015.1 - 0.0
22/10:00am 28.6 - - - - SSE 6 13 3 7 1015.4 1015.4 0.0
22/09:30am 27.3 - - - - SSE 6 9 3 5 1015.5 - 0.0
22/09:00am 26.9 - - - - SSE 7 13 4 7 1015.7 1015.7 0.0
22/08:30am 26.4 - - - - SE 6 11 3 6 1015.5 - 0.0
22/08:00am 25.4 - - - - SE 6 15 3 8 1015.3 1015.3 0.0
22/07:30am 24.6 - - - - SE 7 15 4 8 1015.0 - 0.0
22/07:00am 24.3 - - - - SSE 6 15 3 8 1014.6 1014.6 0.0
22/06:30am 24.3 - - - - SE 7 17 4 9 1014.4 - 0.0
22/06:00am 23.9 - - - - SSE 4 13 2 7 1014.1 1014.1 0.0
22/05:30am 24.0 - - - - SSE 4 7 2 4 1013.8 - 0.0
22/05:00am 23.9 - - - - SSE 4 7 2 4 1013.7 1013.7 0.0
22/04:30am 24.1 - - - - SSE 4 9 2 5 1013.5 - 0.0
22/04:00am 24.3 - - - - SSE 6 13 3 7 1013.6 1013.6 0.0
22/03:30am 24.3 - - - - SSE 4 9 2 5 1013.7 - 0.0
22/03:00am 24.4 - - - - SE 6 15 3 8 1013.8 1013.8 0.0
22/02:30am 24.3 - - - - ESE 9 24 5 13 1013.9 - 0.0
22/02:00am 24.4 - - - - SE 7 15 4 8 1014.1 1014.1 0.0
22/01:30am 24.3 - - - - SSE 6 11 3 6 1014.3 - 0.0
22/01:00am 24.3 - - - - SE 6 13 3 7 1014.5 1014.5 0.0
22/12:30am 24.1 - - - - SSE 4 9 2 5 1014.6 - 0.0
22/12:00am 24.1 - - - - SE 6 15 3 8 1014.7 1014.7 0.0
 
Date/Time
EST
Temp
°C
App
Temp
°C
Dew
Point
Rel
Hum
%
Delta-T
°C
Wind Press
QNH
hPa
Press
MSL
hPa
Rain
since 9 am
mm
Dir
 
Spd
km/h
Gust
km/h
Spd
kts
Gust
kts
21/11:30pm 24.0 - - - - SSE 6 11 3 6 1014.8 - 0.0

Other Formats:

Comma delimited format used in spreadsheet applications
http://www.bom.gov.au/fwo/IDQ60801/IDQ60801.94182.axf

JavaScript Object Notation format (JSON) in row-major order
http://www.bom.gov.au/fwo/IDQ60801/IDQ60801.94182.json